sensor_id;sensor_type;location;lat;lon;timestamp;P1;durP1;ratioP1;P2;durP2;ratioP2
21424;SDS011;10873;51.132;16.848;2022-08-30T00:02:12;4.22;;;3.05;;
21424;SDS011;10873;51.132;16.848;2022-08-30T00:04:39;5.85;;;2.97;;
21424;SDS011;10873;51.132;16.848;2022-08-30T00:07:05;5.03;;;2.50;;
21424;SDS011;10873;51.132;16.848;2022-08-30T00:09:31;4.10;;;2.75;;
21424;SDS011;10873;51.132;16.848;2022-08-30T00:11:57;4.05;;;2.50;;
21424;SDS011;10873;51.132;16.848;2022-08-30T00:14:23;3.60;;;2.70;;
21424;SDS011;10873;51.132;16.848;2022-08-30T00:16:51;5.10;;;2.92;;
21424;SDS011;10873;51.132;16.848;2022-08-30T00:19:22;5.00;;;2.72;;
21424;SDS011;10873;51.132;16.848;2022-08-30T00:22:08;4.35;;;2.85;;
21424;SDS011;10873;51.132;16.848;2022-08-30T00:35:32;4.30;;;2.95;;
21424;SDS011;10873;51.132;16.848;2022-08-30T00:37:59;3.70;;;3.00;;
21424;SDS011;10873;51.132;16.848;2022-08-30T00:40:26;5.00;;;3.05;;
21424;SDS011;10873;51.132;16.848;2022-08-30T00:42:53;4.60;;;2.95;;
21424;SDS011;10873;51.132;16.848;2022-08-30T00:45:20;5.15;;;3.20;;
21424;SDS011;10873;51.132;16.848;2022-08-30T00:47:48;7.70;;;3.13;;
21424;SDS011;10873;51.132;16.848;2022-08-30T00:50:16;5.15;;;3.15;;
21424;SDS011;10873;51.132;16.848;2022-08-30T00:52:48;7.45;;;2.90;;
21424;SDS011;10873;51.132;16.848;2022-08-30T00:55:17;4.43;;;3.05;;
21424;SDS011;10873;51.132;16.848;2022-08-30T00:57:45;4.30;;;2.97;;
21424;SDS011;10873;51.132;16.848;2022-08-30T01:00:13;5.25;;;2.95;;
21424;SDS011;10873;51.132;16.848;2022-08-30T01:02:40;4.18;;;3.00;;
21424;SDS011;10873;51.132;16.848;2022-08-30T01:05:07;5.30;;;3.08;;
21424;SDS011;10873;51.132;16.848;2022-08-30T01:07:35;4.68;;;2.80;;
21424;SDS011;10873;51.132;16.848;2022-08-30T01:10:03;4.90;;;3.13;;
21424;SDS011;10873;51.132;16.848;2022-08-30T01:12:31;4.90;;;3.03;;
21424;SDS011;10873;51.132;16.848;2022-08-30T01:14:58;3.40;;;2.72;;
21424;SDS011;10873;51.132;16.848;2022-08-30T01:17:24;6.18;;;2.85;;
21424;SDS011;10873;51.132;16.848;2022-08-30T01:19:52;4.82;;;2.55;;
21424;SDS011;10873;51.132;16.848;2022-08-30T01:22:21;3.75;;;2.47;;
21424;SDS011;10873;51.132;16.848;2022-08-30T01:24:54;4.07;;;2.60;;
21424;SDS011;10873;51.132;16.848;2022-08-30T01:27:23;3.45;;;2.72;;
21424;SDS011;10873;51.132;16.848;2022-08-30T01:29:50;7.13;;;2.65;;
21424;SDS011;10873;51.132;16.848;2022-08-30T01:32:17;3.78;;;2.90;;
21424;SDS011;10873;51.132;16.848;2022-08-30T01:34:45;4.00;;;2.72;;
21424;SDS011;10873;51.132;16.848;2022-08-30T01:37:13;3.75;;;2.78;;
21424;SDS011;10873;51.132;16.848;2022-08-30T01:39:42;3.17;;;2.60;;
21424;SDS011;10873;51.132;16.848;2022-08-30T01:42:12;4.95;;;2.92;;
21424;SDS011;10873;51.132;16.848;2022-08-30T01:44:38;4.05;;;2.95;;
21424;SDS011;10873;51.132;16.848;2022-08-30T01:47:04;3.78;;;2.75;;
21424;SDS011;10873;51.132;16.848;2022-08-30T01:49:31;5.18;;;3.00;;
21424;SDS011;10873;51.132;16.848;2022-08-30T01:51:56;4.75;;;2.88;;
21424;SDS011;10873;51.132;16.848;2022-08-30T01:54:23;5.40;;;2.70;;
21424;SDS011;10873;51.132;16.848;2022-08-30T01:56:49;3.78;;;3.00;;
21424;SDS011;10873;51.132;16.848;2022-08-30T01:59:16;3.25;;;2.90;;
21424;SDS011;10873;51.132;16.848;2022-08-30T02:01:42;3.88;;;3.10;;
21424;SDS011;10873;51.132;16.848;2022-08-30T02:04:09;5.97;;;3.17;;
21424;SDS011;10873;51.132;16.848;2022-08-30T02:06:37;4.90;;;3.08;;
21424;SDS011;10873;51.132;16.848;2022-08-30T02:09:03;4.15;;;3.00;;
21424;SDS011;10873;51.132;16.848;2022-08-30T02:11:30;4.22;;;3.00;;
21424;SDS011;10873;51.132;16.848;2022-08-30T02:13:56;4.80;;;3.10;;
21424;SDS011;10873;51.132;16.848;2022-08-30T02:16:23;3.95;;;2.70;;
21424;SDS011;10873;51.132;16.848;2022-08-30T02:18:50;3.78;;;3.13;;
21424;SDS011;10873;51.132;16.848;2022-08-30T02:21:17;5.32;;;2.80;;
21424;SDS011;10873;51.132;16.848;2022-08-30T02:23:44;4.53;;;3.20;;
21424;SDS011;10873;51.132;16.848;2022-08-30T02:26:10;7.05;;;3.53;;
21424;SDS011;10873;51.132;16.848;2022-08-30T02:28:37;4.47;;;3.08;;
21424;SDS011;10873;51.132;16.848;2022-08-30T02:31:04;3.75;;;2.78;;
21424;SDS011;10873;51.132;16.848;2022-08-30T02:33:32;4.05;;;2.70;;
21424;SDS011;10873;51.132;16.848;2022-08-30T02:35:58;5.32;;;3.15;;
21424;SDS011;10873;51.132;16.848;2022-08-30T02:38:24;5.47;;;3.28;;
21424;SDS011;10873;51.132;16.848;2022-08-30T02:40:51;4.72;;;3.45;;
21424;SDS011;10873;51.132;16.848;2022-08-30T02:43:17;5.70;;;3.17;;
21424;SDS011;10873;51.132;16.848;2022-08-30T02:45:43;4.50;;;3.05;;
21424;SDS011;10873;51.132;16.848;2022-08-30T02:48:09;4.82;;;3.10;;
21424;SDS011;10873;51.132;16.848;2022-08-30T02:50:39;4.80;;;3.30;;
21424;SDS011;10873;51.132;16.848;2022-08-30T02:53:05;5.45;;;3.20;;
21424;SDS011;10873;51.132;16.848;2022-08-30T02:55:32;5.28;;;3.72;;
21424;SDS011;10873;51.132;16.848;2022-08-30T02:57:58;8.98;;;3.50;;
21424;SDS011;10873;51.132;16.848;2022-08-30T03:00:24;6.30;;;3.88;;
21424;SDS011;10873;51.132;16.848;2022-08-30T03:02:51;4.82;;;3.13;;
21424;SDS011;10873;51.132;16.848;2022-08-30T03:05:17;6.97;;;3.38;;
21424;SDS011;10873;51.132;16.848;2022-08-30T03:07:44;6.03;;;3.78;;
21424;SDS011;10873;51.132;16.848;2022-08-30T03:10:12;5.70;;;3.30;;
21424;SDS011;10873;51.132;16.848;2022-08-30T03:12:38;7.13;;;3.67;;
21424;SDS011;10873;51.132;16.848;2022-08-30T03:15:06;7.03;;;3.67;;
21424;SDS011;10873;51.132;16.848;2022-08-30T03:17:34;5.55;;;3.70;;
21424;SDS011;10873;51.132;16.848;2022-08-30T03:20:00;5.90;;;3.20;;
21424;SDS011;10873;51.132;16.848;2022-08-30T03:22:27;5.25;;;3.60;;
21424;SDS011;10873;51.132;16.848;2022-08-30T03:24:55;5.88;;;3.65;;
21424;SDS011;10873;51.132;16.848;2022-08-30T03:27:23;5.07;;;3.72;;
21424;SDS011;10873;51.132;16.848;2022-08-30T03:29:49;4.10;;;3.22;;
21424;SDS011;10873;51.132;16.848;2022-08-30T03:32:16;8.18;;;3.70;;
21424;SDS011;10873;51.132;16.848;2022-08-30T03:34:42;4.88;;;3.53;;
21424;SDS011;10873;51.132;16.848;2022-08-30T03:37:08;4.78;;;3.50;;
21424;SDS011;10873;51.132;16.848;2022-08-30T03:39:34;4.63;;;3.38;;
21424;SDS011;10873;51.132;16.848;2022-08-30T03:42:02;7.70;;;3.58;;
21424;SDS011;10873;51.132;16.848;2022-08-30T03:44:28;5.75;;;3.67;;
21424;SDS011;10873;51.132;16.848;2022-08-30T03:46:54;6.55;;;3.88;;
21424;SDS011;10873;51.132;16.848;2022-08-30T03:49:21;8.23;;;3.97;;
21424;SDS011;10873;51.132;16.848;2022-08-30T03:51:48;3.90;;;3.17;;
21424;SDS011;10873;51.132;16.848;2022-08-30T03:54:15;5.13;;;3.40;;
21424;SDS011;10873;51.132;16.848;2022-08-30T03:56:41;6.72;;;3.72;;
21424;SDS011;10873;51.132;16.848;2022-08-30T03:59:09;4.72;;;3.50;;
21424;SDS011;10873;51.132;16.848;2022-08-30T04:01:35;6.82;;;3.72;;
21424;SDS011;10873;51.132;16.848;2022-08-30T04:04:01;5.05;;;3.67;;
21424;SDS011;10873;51.132;16.848;2022-08-30T04:06:28;4.47;;;3.60;;
21424;SDS011;10873;51.132;16.848;2022-08-30T04:08:54;5.45;;;3.65;;
21424;SDS011;10873;51.132;16.848;2022-08-30T04:11:20;4.40;;;3.22;;
21424;SDS011;10873;51.132;16.848;2022-08-30T04:31:55;8.10;;;4.10;;
21424;SDS011;10873;51.132;16.848;2022-08-30T04:34:21;4.53;;;3.45;;
21424;SDS011;10873;51.132;16.848;2022-08-30T04:36:48;6.45;;;3.83;;
21424;SDS011;10873;51.132;16.848;2022-08-30T04:39:14;5.57;;;3.80;;
21424;SDS011;10873;51.132;16.848;2022-08-30T04:41:41;5.03;;;3.55;;
21424;SDS011;10873;51.132;16.848;2022-08-30T04:44:07;5.05;;;3.70;;
21424;SDS011;10873;51.132;16.848;2022-08-30T04:46:33;5.88;;;3.95;;
21424;SDS011;10873;51.132;16.848;2022-08-30T04:49:02;6.13;;;4.00;;
21424;SDS011;10873;51.132;16.848;2022-08-30T04:51:29;4.13;;;3.50;;
21424;SDS011;10873;51.132;16.848;2022-08-30T04:53:55;6.22;;;3.50;;
21424;SDS011;10873;51.132;16.848;2022-08-30T04:56:22;7.78;;;3.90;;
21424;SDS011;10873;51.132;16.848;2022-08-30T04:58:49;7.05;;;3.90;;
21424;SDS011;10873;51.132;16.848;2022-08-30T05:01:18;6.72;;;3.80;;
21424;SDS011;10873;51.132;16.848;2022-08-30T05:03:46;5.93;;;3.53;;
21424;SDS011;10873;51.132;16.848;2022-08-30T05:06:15;4.80;;;3.45;;
21424;SDS011;10873;51.132;16.848;2022-08-30T05:08:41;4.97;;;3.90;;
21424;SDS011;10873;51.132;16.848;2022-08-30T05:11:08;4.28;;;3.30;;
21424;SDS011;10873;51.132;16.848;2022-08-30T05:13:34;5.63;;;3.55;;
21424;SDS011;10873;51.132;16.848;2022-08-30T05:16:01;6.38;;;3.92;;
21424;SDS011;10873;51.132;16.848;2022-08-30T05:18:29;5.22;;;3.50;;
21424;SDS011;10873;51.132;16.848;2022-08-30T05:21:01;4.38;;;3.38;;
21424;SDS011;10873;51.132;16.848;2022-08-30T05:23:30;5.47;;;3.97;;
21424;SDS011;10873;51.132;16.848;2022-08-30T05:25:56;5.20;;;3.85;;
21424;SDS011;10873;51.132;16.848;2022-08-30T05:28:22;6.85;;;3.88;;
21424;SDS011;10873;51.132;16.848;2022-08-30T05:30:48;6.18;;;3.80;;
21424;SDS011;10873;51.132;16.848;2022-08-30T05:33:15;5.38;;;4.05;;
21424;SDS011;10873;51.132;16.848;2022-08-30T05:35:41;5.47;;;3.67;;
21424;SDS011;10873;51.132;16.848;2022-08-30T05:38:07;4.68;;;3.40;;
21424;SDS011;10873;51.132;16.848;2022-08-30T05:40:34;7.03;;;3.67;;
21424;SDS011;10873;51.132;16.848;2022-08-30T05:43:04;4.65;;;3.55;;
21424;SDS011;10873;51.132;16.848;2022-08-30T05:45:30;5.03;;;3.90;;
21424;SDS011;10873;51.132;16.848;2022-08-30T05:47:57;6.65;;;3.72;;
21424;SDS011;10873;51.132;16.848;2022-08-30T05:50:23;4.28;;;3.60;;
21424;SDS011;10873;51.132;16.848;2022-08-30T05:52:49;6.00;;;3.90;;
21424;SDS011;10873;51.132;16.848;2022-08-30T05:55:15;7.85;;;3.83;;
21424;SDS011;10873;51.132;16.848;2022-08-30T05:57:44;5.22;;;3.90;;
21424;SDS011;10873;51.132;16.848;2022-08-30T06:00:11;7.40;;;3.90;;
21424;SDS011;10873;51.132;16.848;2022-08-30T06:02:39;4.72;;;3.72;;
21424;SDS011;10873;51.132;16.848;2022-08-30T06:05:06;4.88;;;3.72;;
21424;SDS011;10873;51.132;16.848;2022-08-30T06:07:34;9.30;;;4.32;;
21424;SDS011;10873;51.132;16.848;2022-08-30T06:10:00;7.55;;;4.07;;
21424;SDS011;10873;51.132;16.848;2022-08-30T06:12:26;5.20;;;4.03;;
21424;SDS011;10873;51.132;16.848;2022-08-30T06:14:54;6.63;;;3.58;;
21424;SDS011;10873;51.132;16.848;2022-08-30T06:17:20;6.45;;;4.15;;
21424;SDS011;10873;51.132;16.848;2022-08-30T06:19:46;5.65;;;3.85;;
21424;SDS011;10873;51.132;16.848;2022-08-30T06:22:12;4.43;;;3.92;;
21424;SDS011;10873;51.132;16.848;2022-08-30T06:24:38;6.88;;;4.30;;
21424;SDS011;10873;51.132;16.848;2022-08-30T06:27:04;4.80;;;4.03;;
21424;SDS011;10873;51.132;16.848;2022-08-30T06:29:30;4.65;;;3.85;;
21424;SDS011;10873;51.132;16.848;2022-08-30T06:31:58;6.13;;;4.10;;
21424;SDS011;10873;51.132;16.848;2022-08-30T06:34:24;8.35;;;4.43;;
21424;SDS011;10873;51.132;16.848;2022-08-30T06:36:51;6.68;;;3.85;;
21424;SDS011;10873;51.132;16.848;2022-08-30T06:39:17;5.03;;;3.78;;
21424;SDS011;10873;51.132;16.848;2022-08-30T06:41:43;4.97;;;4.05;;
21424;SDS011;10873;51.132;16.848;2022-08-30T06:44:09;5.30;;;4.03;;
21424;SDS011;10873;51.132;16.848;2022-08-30T06:46:36;4.72;;;3.67;;
21424;SDS011;10873;51.132;16.848;2022-08-30T06:49:04;4.88;;;3.75;;
21424;SDS011;10873;51.132;16.848;2022-08-30T06:51:31;4.70;;;4.18;;
21424;SDS011;10873;51.132;16.848;2022-08-30T06:54:00;4.60;;;3.88;;
21424;SDS011;10873;51.132;16.848;2022-08-30T06:56:27;4.93;;;4.25;;
21424;SDS011;10873;51.132;16.848;2022-08-30T06:58:53;7.28;;;4.18;;
21424;SDS011;10873;51.132;16.848;2022-08-30T07:01:22;6.57;;;4.03;;
21424;SDS011;10873;51.132;16.848;2022-08-30T07:03:49;4.90;;;4.25;;
21424;SDS011;10873;51.132;16.848;2022-08-30T07:06:17;4.43;;;3.75;;
21424;SDS011;10873;51.132;16.848;2022-08-30T07:08:45;4.80;;;4.18;;
21424;SDS011;10873;51.132;16.848;2022-08-30T07:11:11;4.50;;;3.72;;
21424;SDS011;10873;51.132;16.848;2022-08-30T07:13:37;3.78;;;3.38;;
21424;SDS011;10873;51.132;16.848;2022-08-30T07:16:08;4.32;;;3.90;;
21424;SDS011;10873;51.132;16.848;2022-08-30T07:18:35;4.47;;;3.63;;
21424;SDS011;10873;51.132;16.848;2022-08-30T07:21:21;3.92;;;3.47;;
21424;SDS011;10873;51.132;16.848;2022-08-30T07:23:49;4.40;;;3.88;;
21424;SDS011;10873;51.132;16.848;2022-08-30T07:26:18;4.22;;;3.80;;
21424;SDS011;10873;51.132;16.848;2022-08-30T07:28:46;4.47;;;3.72;;
21424;SDS011;10873;51.132;16.848;2022-08-30T07:31:13;3.83;;;3.40;;
21424;SDS011;10873;51.132;16.848;2022-08-30T07:33:41;4.78;;;3.58;;
21424;SDS011;10873;51.132;16.848;2022-08-30T07:36:07;5.55;;;3.47;;
21424;SDS011;10873;51.132;16.848;2022-08-30T07:38:35;5.60;;;3.88;;
21424;SDS011;10873;51.132;16.848;2022-08-30T07:41:01;3.90;;;3.35;;
21424;SDS011;10873;51.132;16.848;2022-08-30T07:43:28;5.55;;;4.13;;
21424;SDS011;10873;51.132;16.848;2022-08-30T07:45:59;4.25;;;3.60;;
21424;SDS011;10873;51.132;16.848;2022-08-30T07:48:25;3.75;;;3.40;;
21424;SDS011;10873;51.132;16.848;2022-08-30T07:50:51;6.32;;;4.18;;
21424;SDS011;10873;51.132;16.848;2022-08-30T07:53:17;4.53;;;3.80;;
21424;SDS011;10873;51.132;16.848;2022-08-30T07:55:45;4.55;;;3.70;;
21424;SDS011;10873;51.132;16.848;2022-08-30T07:58:11;4.00;;;3.60;;
21424;SDS011;10873;51.132;16.848;2022-08-30T08:00:37;4.60;;;3.85;;
21424;SDS011;10873;51.132;16.848;2022-08-30T08:03:04;5.25;;;3.83;;
21424;SDS011;10873;51.132;16.848;2022-08-30T08:05:31;4.70;;;3.55;;
21424;SDS011;10873;51.132;16.848;2022-08-30T08:08:00;4.78;;;3.85;;
21424;SDS011;10873;51.132;16.848;2022-08-30T08:10:26;4.20;;;3.80;;
21424;SDS011;10873;51.132;16.848;2022-08-30T08:12:54;3.78;;;3.42;;
21424;SDS011;10873;51.132;16.848;2022-08-30T08:15:20;4.32;;;3.72;;
21424;SDS011;10873;51.132;16.848;2022-08-30T08:17:46;4.43;;;3.80;;
21424;SDS011;10873;51.132;16.848;2022-08-30T08:20:12;4.05;;;3.65;;
21424;SDS011;10873;51.132;16.848;2022-08-30T08:22:38;5.47;;;3.85;;
21424;SDS011;10873;51.132;16.848;2022-08-30T08:25:04;6.25;;;3.65;;
21424;SDS011;10873;51.132;16.848;2022-08-30T08:27:31;4.30;;;3.70;;
21424;SDS011;10873;51.132;16.848;2022-08-30T08:29:58;4.30;;;3.85;;
21424;SDS011;10873;51.132;16.848;2022-08-30T08:32:24;4.13;;;3.72;;
21424;SDS011;10873;51.132;16.848;2022-08-30T08:34:50;4.18;;;3.58;;
21424;SDS011;10873;51.132;16.848;2022-08-30T08:37:16;5.00;;;3.90;;
21424;SDS011;10873;51.132;16.848;2022-08-30T08:39:43;5.53;;;3.50;;
21424;SDS011;10873;51.132;16.848;2022-08-30T08:42:11;6.57;;;3.80;;
21424;SDS011;10873;51.132;16.848;2022-08-30T08:44:46;4.55;;;4.10;;
21424;SDS011;10873;51.132;16.848;2022-08-30T08:47:22;5.50;;;3.88;;
21424;SDS011;10873;51.132;16.848;2022-08-30T08:49:54;4.68;;;3.80;;
21424;SDS011;10873;51.132;16.848;2022-08-30T08:52:23;3.97;;;3.60;;
21424;SDS011;10873;51.132;16.848;2022-08-30T08:55:13;4.88;;;3.80;;
21424;SDS011;10873;51.132;16.848;2022-08-30T08:57:43;3.88;;;3.58;;
21424;SDS011;10873;51.132;16.848;2022-08-30T09:00:10;3.92;;;3.53;;
21424;SDS011;10873;51.132;16.848;2022-08-30T09:02:40;4.82;;;3.75;;
21424;SDS011;10873;51.132;16.848;2022-08-30T09:05:10;3.67;;;3.22;;
21424;SDS011;10873;51.132;16.848;2022-08-30T09:07:41;3.85;;;3.45;;
21424;SDS011;10873;51.132;16.848;2022-08-30T09:10:12;4.15;;;3.47;;
21424;SDS011;10873;51.132;16.848;2022-08-30T09:12:38;3.75;;;3.40;;
21424;SDS011;10873;51.132;16.848;2022-08-30T09:15:06;3.72;;;3.17;;
21424;SDS011;10873;51.132;16.848;2022-08-30T09:17:48;4.40;;;3.60;;
21424;SDS011;10873;51.132;16.848;2022-08-30T09:20:22;4.38;;;3.33;;
21424;SDS011;10873;51.132;16.848;2022-08-30T09:22:56;4.43;;;3.42;;
21424;SDS011;10873;51.132;16.848;2022-08-30T09:25:24;4.13;;;3.45;;
21424;SDS011;10873;51.132;16.848;2022-08-30T09:27:52;3.58;;;3.28;;
21424;SDS011;10873;51.132;16.848;2022-08-30T09:30:32;4.20;;;3.70;;
21424;SDS011;10873;51.132;16.848;2022-08-30T09:33:00;5.07;;;3.95;;
21424;SDS011;10873;51.132;16.848;2022-08-30T09:35:31;3.95;;;3.55;;
21424;SDS011;10873;51.132;16.848;2022-08-30T09:38:02;3.95;;;3.30;;
21424;SDS011;10873;51.132;16.848;2022-08-30T09:45:46;3.70;;;3.40;;
21424;SDS011;10873;51.132;16.848;2022-08-30T09:48:34;3.65;;;3.35;;
21424;SDS011;10873;51.132;16.848;2022-08-30T09:54:10;4.40;;;3.47;;
21424;SDS011;10873;51.132;16.848;2022-08-30T09:56:49;4.05;;;3.20;;
21424;SDS011;10873;51.132;16.848;2022-08-30T09:59:38;3.72;;;3.35;;
21424;SDS011;10873;51.132;16.848;2022-08-30T10:02:16;3.83;;;3.15;;
21424;SDS011;10873;51.132;16.848;2022-08-30T10:04:57;3.97;;;3.65;;
21424;SDS011;10873;51.132;16.848;2022-08-30T10:07:30;3.92;;;3.60;;
21424;SDS011;10873;51.132;16.848;2022-08-30T10:10:02;3.85;;;3.45;;
21424;SDS011;10873;51.132;16.848;2022-08-30T10:12:36;3.80;;;3.40;;
21424;SDS011;10873;51.132;16.848;2022-08-30T10:15:16;4.22;;;3.20;;
21424;SDS011;10873;51.132;16.848;2022-08-30T10:17:47;3.50;;;3.20;;
21424;SDS011;10873;51.132;16.848;2022-08-30T10:20:25;3.85;;;3.40;;
21424;SDS011;10873;51.132;16.848;2022-08-30T10:22:59;3.78;;;3.25;;
21424;SDS011;10873;51.132;16.848;2022-08-30T10:25:31;3.53;;;3.20;;
21424;SDS011;10873;51.132;16.848;2022-08-30T10:28:01;3.58;;;3.28;;
21424;SDS011;10873;51.132;16.848;2022-08-30T10:30:32;3.60;;;3.28;;
21424;SDS011;10873;51.132;16.848;2022-08-30T10:33:03;4.55;;;3.47;;
21424;SDS011;10873;51.132;16.848;2022-08-30T10:35:35;3.90;;;3.60;;
21424;SDS011;10873;51.132;16.848;2022-08-30T10:38:07;3.30;;;3.00;;
21424;SDS011;10873;51.132;16.848;2022-08-30T10:40:39;4.05;;;3.25;;
21424;SDS011;10873;51.132;16.848;2022-08-30T10:43:29;4.40;;;3.20;;
21424;SDS011;10873;51.132;16.848;2022-08-30T10:46:00;3.35;;;3.05;;
21424;SDS011;10873;51.132;16.848;2022-08-30T10:48:32;4.10;;;3.70;;
21424;SDS011;10873;51.132;16.848;2022-08-30T10:51:03;4.63;;;3.60;;
21424;SDS011;10873;51.132;16.848;2022-08-30T10:53:37;3.70;;;3.40;;
21424;SDS011;10873;51.132;16.848;2022-08-30T10:56:07;3.75;;;3.40;;
21424;SDS011;10873;51.132;16.848;2022-08-30T10:58:36;3.40;;;3.10;;
21424;SDS011;10873;51.132;16.848;2022-08-30T11:01:09;4.03;;;3.58;;
21424;SDS011;10873;51.132;16.848;2022-08-30T11:04:00;3.60;;;3.30;;
21424;SDS011;10873;51.132;16.848;2022-08-30T11:06:46;4.05;;;3.42;;
21424;SDS011;10873;51.132;16.848;2022-08-30T11:09:30;3.30;;;3.00;;
21424;SDS011;10873;51.132;16.848;2022-08-30T11:12:21;3.63;;;3.08;;
21424;SDS011;10873;51.132;16.848;2022-08-30T11:15:00;3.30;;;3.00;;
21424;SDS011;10873;51.132;16.848;2022-08-30T11:17:39;3.83;;;3.20;;
21424;SDS011;10873;51.132;16.848;2022-08-30T11:20:20;3.47;;;3.17;;
21424;SDS011;10873;51.132;16.848;2022-08-30T11:25:49;3.40;;;3.10;;
21424;SDS011;10873;51.132;16.848;2022-08-30T11:31:30;3.50;;;3.13;;
21424;SDS011;10873;51.132;16.848;2022-08-30T11:34:01;3.78;;;3.38;;
21424;SDS011;10873;51.132;16.848;2022-08-30T11:39:53;3.65;;;3.35;;
21424;SDS011;10873;51.132;16.848;2022-08-30T11:42:26;3.85;;;3.00;;
21424;SDS011;10873;51.132;16.848;2022-08-30T11:48:03;3.53;;;3.22;;
21424;SDS011;10873;51.132;16.848;2022-08-30T11:50:33;3.85;;;3.47;;
21424;SDS011;10873;51.132;16.848;2022-08-30T11:53:06;5.43;;;3.40;;
21424;SDS011;10873;51.132;16.848;2022-08-30T11:55:42;3.10;;;2.90;;
21424;SDS011;10873;51.132;16.848;2022-08-30T11:58:19;3.58;;;3.28;;
21424;SDS011;10873;51.132;16.848;2022-08-30T12:03:43;3.30;;;3.03;;
21424;SDS011;10873;51.132;16.848;2022-08-30T12:18:23;3.60;;;3.15;;
21424;SDS011;10873;51.132;16.848;2022-08-30T12:21:04;3.15;;;2.85;;
21424;SDS011;10873;51.132;16.848;2022-08-30T12:23:46;2.95;;;2.75;;
21424;SDS011;10873;51.132;16.848;2022-08-30T12:26:17;3.95;;;3.10;;
21424;SDS011;10873;51.132;16.848;2022-08-30T12:29:06;3.10;;;2.85;;
21424;SDS011;10873;51.132;16.848;2022-08-30T12:31:38;2.90;;;2.70;;
21424;SDS011;10873;51.132;16.848;2022-08-30T12:34:06;3.20;;;2.90;;
21424;SDS011;10873;51.132;16.848;2022-08-30T12:36:34;3.28;;;2.95;;
21424;SDS011;10873;51.132;16.848;2022-08-30T12:39:05;3.58;;;3.10;;
21424;SDS011;10873;51.132;16.848;2022-08-30T12:41:32;3.20;;;2.90;;
21424;SDS011;10873;51.132;16.848;2022-08-30T12:43:59;2.97;;;2.78;;
21424;SDS011;10873;51.132;16.848;2022-08-30T12:46:27;3.40;;;3.10;;
21424;SDS011;10873;51.132;16.848;2022-08-30T12:48:54;3.05;;;2.85;;
21424;SDS011;10873;51.132;16.848;2022-08-30T12:51:26;3.35;;;2.80;;
21424;SDS011;10873;51.132;16.848;2022-08-30T12:54:02;3.08;;;2.83;;
21424;SDS011;10873;51.132;16.848;2022-08-30T13:02:20;2.55;;;2.35;;
21424;SDS011;10873;51.132;16.848;2022-08-30T13:04:49;2.70;;;2.50;;
21424;SDS011;10873;51.132;16.848;2022-08-30T13:07:23;6.22;;;3.00;;
21424;SDS011;10873;51.132;16.848;2022-08-30T13:09:59;3.10;;;2.80;;
21424;SDS011;10873;51.132;16.848;2022-08-30T13:12:31;2.80;;;2.60;;
21424;SDS011;10873;51.132;16.848;2022-08-30T13:15:11;2.95;;;2.65;;
21424;SDS011;10873;51.132;16.848;2022-08-30T13:17:43;2.95;;;2.65;;
21424;SDS011;10873;51.132;16.848;2022-08-30T13:20:20;3.28;;;2.97;;
21424;SDS011;10873;51.132;16.848;2022-08-30T13:22:59;3.25;;;2.70;;
21424;SDS011;10873;51.132;16.848;2022-08-30T13:25:29;3.22;;;2.88;;
21424;SDS011;10873;51.132;16.848;2022-08-30T13:27:56;2.60;;;2.40;;
21424;SDS011;10873;51.132;16.848;2022-08-30T13:30:23;2.90;;;2.70;;
21424;SDS011;10873;51.132;16.848;2022-08-30T13:32:51;3.17;;;2.88;;
21424;SDS011;10873;51.132;16.848;2022-08-30T13:35:17;3.30;;;2.75;;
21424;SDS011;10873;51.132;16.848;2022-08-30T13:37:43;2.65;;;2.45;;
21424;SDS011;10873;51.132;16.848;2022-08-30T13:40:10;3.30;;;3.00;;
21424;SDS011;10873;51.132;16.848;2022-08-30T13:42:37;3.30;;;3.00;;
21424;SDS011;10873;51.132;16.848;2022-08-30T13:45:05;2.50;;;2.30;;
21424;SDS011;10873;51.132;16.848;2022-08-30T13:47:31;2.78;;;2.50;;
21424;SDS011;10873;51.132;16.848;2022-08-30T13:49:59;2.38;;;2.17;;
21424;SDS011;10873;51.132;16.848;2022-08-30T13:52:25;2.25;;;2.05;;
21424;SDS011;10873;51.132;16.848;2022-08-30T13:54:52;2.70;;;2.50;;
21424;SDS011;10873;51.132;16.848;2022-08-30T13:57:20;2.50;;;2.30;;
21424;SDS011;10873;51.132;16.848;2022-08-30T13:59:48;2.63;;;2.42;;
21424;SDS011;10873;51.132;16.848;2022-08-30T14:02:14;2.63;;;2.40;;
21424;SDS011;10873;51.132;16.848;2022-08-30T14:04:40;2.60;;;2.40;;
21424;SDS011;10873;51.132;16.848;2022-08-30T14:07:07;2.50;;;2.30;;
21424;SDS011;10873;51.132;16.848;2022-08-30T14:12:58;2.80;;;2.60;;
21424;SDS011;10873;51.132;16.848;2022-08-30T14:15:47;2.50;;;2.30;;
21424;SDS011;10873;51.132;16.848;2022-08-30T14:18:31;2.50;;;2.30;;
21424;SDS011;10873;51.132;16.848;2022-08-30T14:21:06;2.90;;;2.70;;
21424;SDS011;10873;51.132;16.848;2022-08-30T14:24:00;2.90;;;2.28;;
21424;SDS011;10873;51.132;16.848;2022-08-30T14:26:42;3.42;;;2.60;;
21424;SDS011;10873;51.132;16.848;2022-08-30T14:29:13;3.05;;;2.55;;
21424;SDS011;10873;51.132;16.848;2022-08-30T14:32:02;2.80;;;2.55;;
21424;SDS011;10873;51.132;16.848;2022-08-30T14:34:57;2.58;;;2.38;;
21424;SDS011;10873;51.132;16.848;2022-08-30T14:37:30;2.78;;;2.53;;
21424;SDS011;10873;51.132;16.848;2022-08-30T14:43:42;2.30;;;2.10;;
21424;SDS011;10873;51.132;16.848;2022-08-30T14:46:12;2.50;;;2.30;;
21424;SDS011;10873;51.132;16.848;2022-08-30T14:48:46;2.40;;;2.20;;
21424;SDS011;10873;51.132;16.848;2022-08-30T14:51:13;2.78;;;2.58;;
21424;SDS011;10873;51.132;16.848;2022-08-30T14:53:41;2.55;;;2.35;;
21424;SDS011;10873;51.132;16.848;2022-08-30T14:56:10;2.60;;;2.30;;
21424;SDS011;10873;51.132;16.848;2022-08-30T14:58:40;2.55;;;2.35;;
21424;SDS011;10873;51.132;16.848;2022-08-30T15:01:06;3.92;;;2.60;;
21424;SDS011;10873;51.132;16.848;2022-08-30T15:03:33;3.28;;;2.60;;
21424;SDS011;10873;51.132;16.848;2022-08-30T15:05:59;2.33;;;2.13;;
21424;SDS011;10873;51.132;16.848;2022-08-30T15:08:25;2.85;;;2.30;;
21424;SDS011;10873;51.132;16.848;2022-08-30T15:10:51;2.50;;;2.30;;
21424;SDS011;10873;51.132;16.848;2022-08-30T15:13:19;2.85;;;2.30;;
21424;SDS011;10873;51.132;16.848;2022-08-30T15:15:45;2.90;;;2.50;;
21424;SDS011;10873;51.132;16.848;2022-08-30T15:18:11;2.55;;;1.98;;
21424;SDS011;10873;51.132;16.848;2022-08-30T15:20:43;2.63;;;2.42;;
21424;SDS011;10873;51.132;16.848;2022-08-30T15:23:09;2.97;;;2.67;;
21424;SDS011;10873;51.132;16.848;2022-08-30T15:25:36;2.33;;;2.13;;
21424;SDS011;10873;51.132;16.848;2022-08-30T15:28:02;2.17;;;2.00;;
21424;SDS011;10873;51.132;16.848;2022-08-30T15:30:29;3.03;;;2.10;;
21424;SDS011;10873;51.132;16.848;2022-08-30T15:32:55;2.67;;;2.15;;
21424;SDS011;10873;51.132;16.848;2022-08-30T15:35:21;2.45;;;2.25;;
21424;SDS011;10873;51.132;16.848;2022-08-30T15:37:47;3.35;;;2.33;;
21424;SDS011;10873;51.132;16.848;2022-08-30T15:40:14;2.22;;;2.03;;
21424;SDS011;10873;51.132;16.848;2022-08-30T15:42:40;2.88;;;2.13;;
21424;SDS011;10873;51.132;16.848;2022-08-30T15:45:06;2.35;;;2.15;;
21424;SDS011;10873;51.132;16.848;2022-08-30T15:47:35;2.53;;;2.33;;
21424;SDS011;10873;51.132;16.848;2022-08-30T15:50:02;2.40;;;2.20;;
21424;SDS011;10873;51.132;16.848;2022-08-30T15:52:30;2.58;;;2.22;;
21424;SDS011;10873;51.132;16.848;2022-08-30T15:54:57;2.35;;;2.10;;
21424;SDS011;10873;51.132;16.848;2022-08-30T15:57:23;2.17;;;2.08;;
21424;SDS011;10873;51.132;16.848;2022-08-30T15:59:50;2.28;;;2.10;;
21424;SDS011;10873;51.132;16.848;2022-08-30T16:02:19;2.20;;;2.10;;
21424;SDS011;10873;51.132;16.848;2022-08-30T16:04:47;2.42;;;2.22;;